Time;durP1;ratioP1;P1;durP2;ratioP2;P2;SDS_P1;SDS_P2;PMS_P1;PMS_P2;Temp;Humidity;BMP_temperature;BMP_pressure;BME280_temperature;BME280_humidity;BME280_pressure;Samples;Min_cycle;Max_cycle;Signal;HPM_P1;HPM_P2
2022/02/27 00:01:23;;;;;;;3.45;1.70;;;5.40;62.40;;;;;;5132526;27;20053;-82
2022/02/27 00:03:49;;;;;;;4.22;1.80;;;5.40;62.50;;;;;;5113994;27;20043;-82
2022/02/27 00:06:15;;;;;;;2.58;1.40;;;5.40;62.60;;;;;;5113237;28;20024;-81
2022/02/27 00:08:41;;;;;;;2.65;1.50;;;5.40;62.50;;;;;;5133231;27;20511;-81
2022/02/27 00:11:11;;;;;;;3.65;1.80;;;5.40;62.70;;;;;;5134410;27;20031;-81
2022/02/27 00:13:37;;;;;;;4.13;1.80;;;5.40;62.60;;;;;;5132481;27;20509;-81
2022/02/27 00:16:02;;;;;;;2.92;1.67;;;5.40;62.60;;;;;;5132097;27;20107;-81
2022/02/27 00:18:28;;;;;;;3.03;1.60;;;5.30;62.80;;;;;;5130564;27;20075;-81
2022/02/27 00:20:54;;;;;;;3.88;1.80;;;5.30;62.70;;;;;;5132240;27;20026;-81
2022/02/27 00:23:19;;;;;;;3.10;1.58;;;5.30;63.10;;;;;;5134067;27;20080;-81
2022/02/27 00:25:45;;;;;;;5.30;1.65;;;5.30;62.60;;;;;;5131591;27;20030;-80
2022/02/27 00:28:11;;;;;;;2.78;1.60;;;5.30;62.90;;;;;;5131996;27;20030;-82
2022/02/27 00:30:37;;;;;;;3.25;1.60;;;5.30;62.70;;;;;;5131942;27;20038;-82
2022/02/27 00:33:04;;;;;;;3.25;1.50;;;5.20;63.00;;;;;;5132001;27;20110;-84
2022/02/27 00:35:29;;;;;;;2.80;1.42;;;5.20;62.80;;;;;;5133940;27;20034;-82
2022/02/27 00:37:55;;;;;;;4.10;1.60;;;5.20;62.90;;;;;;5131781;27;20023;-82
2022/02/27 00:40:21;;;;;;;2.65;1.48;;;5.20;62.90;;;;;;5131468;27;20037;-82
2022/02/27 00:42:46;;;;;;;4.35;1.67;;;5.20;63.20;;;;;;5112712;27;20092;-82
2022/02/27 00:45:12;;;;;;;2.78;1.50;;;5.20;62.90;;;;;;5131512;27;20035;-82
2022/02/27 00:47:38;;;;;;;4.95;1.70;;;5.10;62.90;;;;;;5133007;27;20424;-82
2022/02/27 00:50:05;;;;;;;2.83;1.35;;;5.10;63.10;;;;;;5132097;27;20502;-82
2022/02/27 00:52:30;;;;;;;4.07;1.45;;;5.10;63.00;;;;;;5131571;27;20027;-84
2022/02/27 00:54:56;;;;;;;3.03;1.50;;;5.10;63.20;;;;;;5112609;27;20391;-82
2022/02/27 00:57:23;;;;;;;2.50;1.60;;;5.10;63.40;;;;;;5129803;27;20444;-81
2022/02/27 00:59:49;;;;;;;2.35;1.17;;;5.10;63.20;;;;;;5131888;27;20699;-82
2022/02/27 01:02:15;;;;;;;3.25;1.70;;;5.10;63.50;;;;;;5132327;27;20027;-83
2022/02/27 01:04:41;;;;;;;3.30;1.45;;;5.00;63.30;;;;;;5112814;27;20125;-82
2022/02/27 01:07:06;;;;;;;3.83;1.58;;;5.00;63.40;;;;;;5130904;27;20554;-82
2022/02/27 01:09:32;;;;;;;3.67;1.63;;;5.00;63.40;;;;;;5131436;27;20026;-82
2022/02/27 01:11:58;;;;;;;4.55;1.60;;;5.00;63.40;;;;;;5131922;27;20027;-82
2022/02/27 01:14:24;;;;;;;3.53;1.50;;;5.00;63.70;;;;;;5115268;27;20031;-82
2022/02/27 01:16:50;;;;;;;2.97;1.25;;;5.00;64.40;;;;;;5130858;27;20250;-82
2022/02/27 01:19:15;;;;;;;3.70;1.67;;;5.00;63.50;;;;;;5130406;27;20528;-82
2022/02/27 01:21:41;;;;;;;3.15;1.58;;;5.00;63.50;;;;;;5112632;27;20024;-82
2022/02/27 01:24:08;;;;;;;2.35;1.50;;;4.90;63.50;;;;;;5130646;27;20495;-82
2022/02/27 01:26:34;;;;;;;3.08;1.40;;;5.00;63.50;;;;;;5128965;27;20023;-82
2022/02/27 01:29:00;;;;;;;3.22;1.60;;;4.90;63.40;;;;;;5112479;27;20121;-82
2022/02/27 01:31:26;;;;;;;3.60;1.40;;;4.90;63.70;;;;;;5131020;27;20024;-82
2022/02/27 01:33:51;;;;;;;2.65;1.35;;;4.90;63.60;;;;;;5112377;27;20072;-82
2022/02/27 01:36:17;;;;;;;2.40;1.38;;;4.90;63.60;;;;;;5111197;27;20437;-83
2022/02/27 01:38:45;;;;;;;2.53;1.40;;;4.90;63.50;;;;;;5131593;27;20072;-82
2022/02/27 01:41:12;;;;;;;3.80;1.33;;;4.90;63.70;;;;;;5132111;27;20031;-82
2022/02/27 01:43:38;;;;;;;3.15;1.38;;;4.90;63.80;;;;;;5130348;27;20043;-81
2022/02/27 01:46:04;;;;;;;2.95;1.45;;;4.80;63.80;;;;;;5130596;28;20054;-82
2022/02/27 01:48:29;;;;;;;5.60;1.20;;;4.80;63.70;;;;;;5130884;28;20031;-82
2022/02/27 01:50:55;;;;;;;2.67;1.27;;;4.80;63.80;;;;;;5131114;27;20365;-82
2022/02/27 01:53:21;;;;;;;3.85;1.67;;;4.80;64.00;;;;;;5131082;27;20051;-82
2022/02/27 01:55:47;;;;;;;2.65;1.40;;;4.70;63.90;;;;;;5130281;27;20031;-81
2022/02/27 01:58:13;;;;;;;2.38;1.27;;;4.70;63.80;;;;;;5129647;27;20084;-82
2022/02/27 02:00:39;;;;;;;3.83;1.30;;;4.70;64.00;;;;;;5130569;28;20491;-82
2022/02/27 02:03:05;;;;;;;3.35;1.40;;;4.70;64.10;;;;;;5096206;28;20061;-82
2022/02/27 02:05:30;;;;;;;3.05;1.50;;;4.70;64.20;;;;;;5114347;28;20138;-81
2022/02/27 02:07:56;;;;;;;2.17;1.40;;;4.70;64.20;;;;;;5130254;27;20015;-82
2022/02/27 02:10:21;;;;;;;2.60;1.50;;;4.60;64.00;;;;;;5132678;27;20429;-82
2022/02/27 02:12:47;;;;;;;4.28;1.33;;;4.60;64.10;;;;;;5130108;27;20395;-81
2022/02/27 02:15:13;;;;;;;2.40;1.50;;;4.60;64.50;;;;;;5111817;28;20023;-81
2022/02/27 02:17:39;;;;;;;4.75;1.92;;;4.60;64.00;;;;;;5131340;27;20425;-82
2022/02/27 02:20:06;;;;;;;3.25;1.83;;;4.50;64.10;;;;;;5128714;27;20043;-82
2022/02/27 02:22:32;;;;;;;2.97;1.48;;;4.60;64.60;;;;;;5129556;28;20144;-83
2022/02/27 02:24:57;;;;;;;1.95;1.30;;;4.50;64.40;;;;;;5129408;27;20126;-82
2022/02/27 02:27:23;;;;;;;3.03;1.60;;;4.50;64.60;;;;;;5129519;27;20785;-82
2022/02/27 02:29:49;;;;;;;2.05;1.50;;;4.50;64.30;;;;;;5130937;27;20159;-82
2022/02/27 02:32:15;;;;;;;2.15;1.33;;;4.50;64.20;;;;;;5133203;27;20024;-82
2022/02/27 02:34:40;;;;;;;2.75;1.30;;;4.50;64.60;;;;;;5132768;27;20031;-82
2022/02/27 02:37:09;;;;;;;3.05;1.33;;;4.50;64.40;;;;;;5133361;27;20534;-82
2022/02/27 02:39:34;;;;;;;2.20;1.27;;;4.40;64.60;;;;;;5133221;27;20029;-81
2022/02/27 02:42:00;;;;;;;4.63;1.30;;;4.40;64.50;;;;;;5133608;27;20023;-82
2022/02/27 02:44:26;;;;;;;4.13;1.65;;;4.40;64.60;;;;;;5135940;27;20051;-82
2022/02/27 02:46:52;;;;;;;5.00;1.67;;;4.40;64.70;;;;;;5133936;27;20027;-83
2022/02/27 02:49:18;;;;;;;2.90;1.42;;;4.40;64.60;;;;;;5134258;27;20048;-82
2022/02/27 02:51:43;;;;;;;3.30;1.70;;;4.30;64.60;;;;;;5133600;27;20088;-82
2022/02/27 02:54:10;;;;;;;2.08;1.38;;;4.30;64.70;;;;;;5132419;27;20483;-82
2022/02/27 02:56:35;;;;;;;2.80;1.40;;;4.30;64.80;;;;;;5136095;27;20023;-82
2022/02/27 02:59:02;;;;;;;2.53;1.90;;;4.30;64.70;;;;;;5133583;27;20084;-82
2022/02/27 03:01:28;;;;;;;2.20;1.40;;;4.30;64.90;;;;;;5133759;27;20023;-83
2022/02/27 03:03:55;;;;;;;2.28;1.58;;;4.30;65.00;;;;;;5133474;27;20034;-83
2022/02/27 03:06:21;;;;;;;3.75;1.60;;;4.30;65.10;;;;;;5132530;27;20031;-83
2022/02/27 03:08:48;;;;;;;2.60;1.45;;;4.30;64.80;;;;;;5134007;27;20031;-82
2022/02/27 03:11:15;;;;;;;4.50;1.50;;;4.30;64.70;;;;;;5134751;27;20030;-83
2022/02/27 03:13:41;;;;;;;2.92;1.40;;;4.30;65.10;;;;;;5133233;27;20023;-83
2022/02/27 03:16:07;;;;;;;2.53;1.45;;;4.30;65.20;;;;;;5132782;27;20027;-84
2022/02/27 03:18:33;;;;;;;1.98;1.30;;;4.20;64.90;;;;;;5131677;27;20477;-82
2022/02/27 03:20:59;;;;;;;4.90;1.63;;;4.20;65.10;;;;;;5132392;27;20027;-84
2022/02/27 03:23:26;;;;;;;4.95;1.42;;;4.20;65.00;;;;;;5135091;27;20035;-84
2022/02/27 03:25:52;;;;;;;4.28;1.40;;;4.20;65.30;;;;;;5132827;27;20047;-83
2022/02/27 03:28:18;;;;;;;3.05;1.58;;;4.10;65.20;;;;;;5131550;27;20479;-83
2022/02/27 03:30:44;;;;;;;2.72;1.58;;;4.10;65.40;;;;;;5132611;27;20030;-83
2022/02/27 03:33:10;;;;;;;3.50;1.65;;;4.10;65.50;;;;;;5131102;27;20407;-84
2022/02/27 03:35:36;;;;;;;2.95;1.55;;;4.10;65.40;;;;;;5134747;27;20019;-83
2022/02/27 03:38:03;;;;;;;3.45;1.30;;;4.10;65.60;;;;;;5130982;27;20031;-83
2022/02/27 03:40:29;;;;;;;3.58;1.38;;;4.10;66.70;;;;;;5132907;27;20031;-83
2022/02/27 03:42:55;;;;;;;3.65;1.67;;;4.10;65.90;;;;;;5132066;27;20050;-83
2022/02/27 03:45:21;;;;;;;2.85;1.30;;;4.10;65.50;;;;;;5131368;27;20480;-81
2022/02/27 03:47:47;;;;;;;2.97;1.40;;;4.00;65.70;;;;;;5133216;27;20019;-82
2022/02/27 03:50:16;;;;;;;2.90;1.42;;;4.00;65.70;;;;;;5131985;27;20077;-81
2022/02/27 03:52:43;;;;;;;3.92;1.83;;;4.00;65.60;;;;;;5132040;27;20023;-81
2022/02/27 03:55:11;;;;;;;3.22;1.48;;;4.00;65.60;;;;;;5132461;27;20023;-81
2022/02/27 03:57:36;;;;;;;2.95;1.48;;;4.00;66.10;;;;;;5132060;27;20031;-81
2022/02/27 04:00:08;;;;;;;2.25;1.40;;;4.00;66.00;;;;;;5132080;27;20037;-79
2022/02/27 04:02:34;;;;;;;3.38;1.48;;;4.00;65.80;;;;;;5129593;27;20031;-81
2022/02/27 04:05:00;;;;;;;4.30;1.50;;;4.00;65.80;;;;;;5132269;27;20027;-82
2022/02/27 04:07:25;;;;;;;4.43;1.77;;;3.90;65.80;;;;;;5132098;27;20483;-81
2022/02/27 04:09:51;;;;;;;2.70;1.58;;;3.90;66.10;;;;;;5133780;27;20031;-80
2022/02/27 04:12:16;;;;;;;4.45;1.65;;;3.90;66.00;;;;;;5130704;27;20123;-80
2022/02/27 04:14:43;;;;;;;3.25;1.58;;;3.90;65.90;;;;;;5133516;27;20027;-80
2022/02/27 04:17:09;;;;;;;3.28;1.90;;;3.90;66.20;;;;;;5113781;27;20025;-80
2022/02/27 04:19:34;;;;;;;3.45;1.52;;;3.90;66.30;;;;;;5112250;27;20024;-81
2022/02/27 04:22:00;;;;;;;2.88;1.55;;;3.80;66.50;;;;;;5131772;27;20043;-81
2022/02/27 04:24:25;;;;;;;2.67;1.58;;;3.80;66.20;;;;;;5131929;27;20522;-81
2022/02/27 04:26:51;;;;;;;2.75;1.52;;;3.80;66.30;;;;;;5132661;27;20034;-82
2022/02/27 04:29:17;;;;;;;3.42;1.48;;;3.80;66.50;;;;;;5131234;27;20023;-81
2022/02/27 04:31:43;;;;;;;2.33;1.65;;;3.80;66.50;;;;;;5131176;27;20054;-81
2022/02/27 04:34:08;;;;;;;3.13;1.55;;;3.80;66.60;;;;;;5113035;27;20055;-81
2022/02/27 04:36:34;;;;;;;2.65;1.40;;;3.80;66.80;;;;;;5112897;27;20023;-82
2022/02/27 04:39:00;;;;;;;1.80;1.50;;;3.80;66.60;;;;;;5131543;27;20056;-81
2022/02/27 04:41:26;;;;;;;3.30;1.50;;;3.80;66.30;;;;;;5115426;27;20027;-81
2022/02/27 04:43:51;;;;;;;3.00;1.40;;;3.80;66.50;;;;;;5129738;27;20066;-82
2022/02/27 04:46:17;;;;;;;2.60;1.60;;;3.80;66.50;;;;;;5130085;27;20448;-82
2022/02/27 04:48:43;;;;;;;3.05;1.40;;;3.80;66.60;;;;;;5131463;27;20030;-83
2022/02/27 04:51:08;;;;;;;3.00;1.48;;;3.80;66.90;;;;;;5129600;27;20437;-82
2022/02/27 04:53:35;;;;;;;3.13;1.42;;;3.80;66.80;;;;;;5133080;27;20057;-82
2022/02/27 04:56:02;;;;;;;2.28;1.40;;;3.80;66.80;;;;;;5131120;27;20031;-81
2022/02/27 04:58:28;;;;;;;2.15;1.30;;;3.80;66.90;;;;;;5112927;27;20030;-82
2022/02/27 05:00:54;;;;;;;1.98;1.20;;;3.80;66.90;;;;;;5125530;27;20023;-82
2022/02/27 05:03:19;;;;;;;2.97;1.42;;;3.80;66.70;;;;;;5112491;27;20113;-81
2022/02/27 05:05:45;;;;;;;4.82;1.42;;;3.80;66.80;;;;;;5131904;27;20384;-83
2022/02/27 05:08:11;;;;;;;2.05;1.45;;;3.80;66.90;;;;;;5112316;27;20025;-83
2022/02/27 05:10:36;;;;;;;1.98;1.30;;;3.80;67.20;;;;;;5131412;27;20023;-81
2022/02/27 05:13:03;;;;;;;2.22;1.50;;;3.80;66.80;;;;;;5112243;27;20064;-82
2022/02/27 05:15:29;;;;;;;2.28;1.58;;;3.80;66.90;;;;;;5130325;27;20498;-82
2022/02/27 05:17:55;;;;;;;2.22;1.42;;;3.80;67.00;;;;;;5131104;27;20019;-82
2022/02/27 05:20:21;;;;;;;2.72;1.42;;;3.80;67.10;;;;;;5114557;27;20034;-82
2022/02/27 05:22:48;;;;;;;2.67;1.52;;;3.80;67.10;;;;;;5130391;27;20027;-82
2022/02/27 05:25:18;;;;;;;2.33;1.52;;;3.80;67.00;;;;;;5130525;27;20034;-81
2022/02/27 05:27:44;;;;;;;2.75;1.35;;;3.80;68.00;;;;;;5130604;27;20024;-83
2022/02/27 05:30:10;;;;;;;2.05;1.40;;;3.70;66.90;;;;;;5130310;27;20019;-83
2022/02/27 05:32:36;;;;;;;2.63;1.48;;;3.70;67.00;;;;;;5114609;28;20399;-83
2022/02/27 05:35:02;;;;;;;3.30;1.58;;;3.70;67.10;;;;;;5129546;27;20030;-82
2022/02/27 05:37:28;;;;;;;2.50;1.42;;;3.70;67.20;;;;;;5130336;27;20023;-82
2022/02/27 05:39:53;;;;;;;3.10;1.33;;;3.70;67.10;;;;;;5112254;27;20357;-81
2022/02/27 05:42:20;;;;;;;2.58;1.60;;;3.70;67.10;;;;;;5112059;28;20559;-82
2022/02/27 05:44:46;;;;;;;3.05;1.50;;;3.70;67.30;;;;;;5131241;27;20043;-81
2022/02/27 05:47:11;;;;;;;2.97;1.60;;;3.70;67.30;;;;;;5129956;27;20035;-82
2022/02/27 05:49:37;;;;;;;4.10;1.80;;;3.70;67.30;;;;;;5111855;27;20496;-82
2022/02/27 05:52:03;;;;;;;1.63;1.33;;;3.60;67.20;;;;;;5111889;28;20055;-82
2022/02/27 05:54:29;;;;;;;2.17;1.45;;;3.60;67.40;;;;;;5130383;27;20023;-81
2022/02/27 05:56:55;;;;;;;3.97;1.15;;;3.70;67.50;;;;;;5130826;28;20032;-82
2022/02/27 05:59:21;;;;;;;4.00;1.50;;;3.60;67.60;;;;;;5132019;27;20019;-82
2022/02/27 06:01:47;;;;;;;2.70;1.60;;;3.60;67.50;;;;;;5130202;27;20031;-81
2022/02/27 06:04:13;;;;;;;3.15;1.42;;;3.60;67.60;;;;;;5130509;27;20076;-81
2022/02/27 06:06:39;;;;;;;3.55;1.40;;;3.60;67.40;;;;;;5133908;27;20022;-81
2022/02/27 06:09:05;;;;;;;4.43;1.55;;;3.50;67.70;;;;;;5117682;27;20032;-79
2022/02/27 06:11:30;;;;;;;3.83;1.40;;;3.50;67.40;;;;;;5135802;27;20487;-81
2022/02/27 06:13:56;;;;;;;2.28;1.40;;;3.50;67.70;;;;;;5114304;27;20516;-80
2022/02/27 06:16:21;;;;;;;4.22;1.33;;;3.50;67.60;;;;;;5133456;27;20020;-81
2022/02/27 06:18:47;;;;;;;3.70;1.55;;;3.50;67.80;;;;;;5115068;27;20483;-80
2022/02/27 06:21:13;;;;;;;1.98;1.40;;;3.40;68.00;;;;;;5134279;27;20023;-80
2022/02/27 06:23:38;;;;;;;2.78;1.30;;;3.50;67.90;;;;;;5135787;27;20388;-80
2022/02/27 06:26:04;;;;;;;2.95;1.45;;;3.40;68.20;;;;;;5133250;27;20419;-81
2022/02/27 06:28:29;;;;;;;2.65;1.35;;;3.40;67.90;;;;;;5133699;27;20019;-81
2022/02/27 06:30:55;;;;;;;2.47;1.55;;;3.50;68.20;;;;;;5115201;27;20062;-80
2022/02/27 06:33:21;;;;;;;2.20;1.60;;;3.50;68.00;;;;;;5134082;27;20543;-81
2022/02/27 06:35:46;;;;;;;2.42;1.42;;;3.50;68.40;;;;;;5134768;27;20487;-81
2022/02/27 06:38:12;;;;;;;5.15;1.73;;;3.40;68.10;;;;;;5135191;27;20028;-82
2022/02/27 06:40:38;;;;;;;2.25;1.40;;;3.40;68.20;;;;;;5134193;27;20019;-81
2022/02/27 06:43:05;;;;;;;2.33;1.42;;;3.40;67.70;;;;;;5133037;27;20035;-82
2022/02/27 06:45:31;;;;;;;2.72;1.42;;;3.40;68.10;;;;;;5133680;27;20019;-81
2022/02/27 06:47:57;;;;;;;2.33;1.55;;;3.40;68.00;;;;;;5133762;27;20869;-80
2022/02/27 06:50:23;;;;;;;2.63;1.50;;;3.40;69.30;;;;;;5135574;27;20502;-80
2022/02/27 06:52:50;;;;;;;2.88;1.40;;;3.40;68.40;;;;;;5115477;27;20027;-81
2022/02/27 06:55:16;;;;;;;2.35;1.48;;;3.40;68.60;;;;;;5133633;27;20027;-80
2022/02/27 06:57:46;;;;;;;2.08;1.23;;;3.40;68.60;;;;;;5132678;27;20022;-81
2022/02/27 07:00:14;;;;;;;2.55;1.58;;;3.40;68.50;;;;;;5133387;27;20027;-81
2022/02/27 07:02:40;;;;;;;2.20;1.45;;;3.40;68.50;;;;;;5135006;27;20096;-81
2022/02/27 07:05:07;;;;;;;3.10;1.63;;;3.40;68.40;;;;;;5132427;27;20483;-81
2022/02/27 07:07:33;;;;;;;2.22;1.38;;;3.40;68.40;;;;;;5133103;27;20028;-81
2022/02/27 07:10:00;;;;;;;3.30;1.50;;;3.50;68.50;;;;;;5114746;27;20027;-80
2022/02/27 07:12:34;;;;;;;3.47;1.55;;;3.40;68.70;;;;;;5132636;27;20403;-80
2022/02/27 07:15:01;;;;;;;2.30;1.40;;;3.50;68.50;;;;;;5114597;27;20507;-80
2022/02/27 07:17:27;;;;;;;3.22;1.63;;;3.50;68.70;;;;;;5134650;27;20023;-80
2022/02/27 07:19:53;;;;;;;2.78;1.63;;;3.60;68.60;;;;;;5133376;27;20019;-81
2022/02/27 07:22:20;;;;;;;3.60;1.85;;;3.60;68.50;;;;;;5132749;27;20031;-80
2022/02/27 07:24:46;;;;;;;3.78;1.65;;;3.60;68.90;;;;;;5133397;27;20037;-81
2022/02/27 07:27:11;;;;;;;2.25;1.38;;;3.60;69.60;;;;;;5133137;27;20031;-80
2022/02/27 07:29:37;;;;;;;5.30;1.90;;;3.60;68.50;;;;;;5117032;27;20023;-81
2022/02/27 07:32:03;;;;;;;2.30;1.40;;;3.60;68.60;;;;;;5133651;27;20059;-81
2022/02/27 07:34:29;;;;;;;2.67;1.42;;;3.70;68.70;;;;;;5133236;27;20015;-80
2022/02/27 07:36:56;;;;;;;3.42;1.77;;;3.70;68.70;;;;;;5133067;27;20042;-80
2022/02/27 07:39:22;;;;;;;2.55;1.73;;;3.80;68.90;;;;;;5133407;27;20019;-81
2022/02/27 07:41:49;;;;;;;2.42;1.38;;;3.80;68.90;;;;;;5133899;27;20035;-81
2022/02/27 07:44:15;;;;;;;2.53;1.65;;;3.80;68.70;;;;;;5132669;27;20036;-81
2022/02/27 07:46:41;;;;;;;3.40;1.90;;;3.90;69.00;;;;;;5132822;27;20038;-80
2022/02/27 07:49:07;;;;;;;2.85;1.70;;;4.00;68.90;;;;;;5132875;27;20491;-80
2022/02/27 07:51:33;;;;;;;2.83;1.48;;;4.00;69.20;;;;;;5133082;27;20027;-81
2022/02/27 07:53:59;;;;;;;2.63;1.70;;;4.10;69.10;;;;;;5133078;27;20026;-81
2022/02/27 07:56:24;;;;;;;3.78;1.90;;;4.20;69.10;;;;;;5116342;27;20114;-82
2022/02/27 07:58:52;;;;;;;2.78;1.70;;;4.20;69.00;;;;;;5132713;27;20391;-81
2022/02/27 08:01:18;;;;;;;3.60;1.90;;;4.30;68.90;;;;;;5112724;27;20119;-82
2022/02/27 08:03:43;;;;;;;3.30;1.80;;;4.30;68.80;;;;;;5113827;27;20122;-81
2022/02/27 08:06:09;;;;;;;3.38;2.00;;;4.40;68.90;;;;;;5131911;27;20028;-80
2022/02/27 08:08:34;;;;;;;2.67;1.80;;;4.50;68.90;;;;;;5134939;27;20038;-80
2022/02/27 08:11:00;;;;;;;4.22;1.92;;;4.50;68.80;;;;;;5131375;27;20499;-81
2022/02/27 08:13:26;;;;;;;3.65;2.05;;;4.60;68.80;;;;;;5130813;27;20057;-79
2022/02/27 08:15:56;;;;;;;3.65;2.00;;;4.60;68.70;;;;;;5129881;27;20031;-80
2022/02/27 08:18:22;;;;;;;2.47;1.63;;;4.70;68.60;;;;;;5113166;27;20062;-80
2022/02/27 08:20:47;;;;;;;3.55;1.63;;;4.80;68.70;;;;;;5133185;27;20507;-81
2022/02/27 08:23:13;;;;;;;2.33;1.40;;;4.80;68.50;;;;;;5112086;27;20080;-81
2022/02/27 08:25:39;;;;;;;4.82;2.20;;;4.90;68.60;;;;;;5113331;27;20483;-79
2022/02/27 08:28:04;;;;;;;2.90;1.95;;;4.90;68.30;;;;;;5131564;27;20023;-80
2022/02/27 08:30:30;;;;;;;3.30;1.88;;;4.90;68.40;;;;;;5132326;27;20522;-79
2022/02/27 08:32:56;;;;;;;3.30;1.90;;;5.00;68.20;;;;;;5129640;27;20046;-80
2022/02/27 08:35:21;;;;;;;3.47;1.65;;;5.10;68.50;;;;;;5133139;27;20039;-87
2022/02/27 08:37:47;;;;;;;6.95;2.97;;;5.20;68.70;;;;;;5132275;27;20019;-81
2022/02/27 08:40:13;;;;;;;9.93;4.18;;;5.20;68.60;;;;;;5135431;27;20019;-81
2022/02/27 08:42:38;;;;;;;8.23;4.18;;;5.20;68.60;;;;;;5131705;27;20512;-82
2022/02/27 08:45:04;;;;;;;6.70;3.13;;;5.30;68.40;;;;;;5112371;27;20057;-83
2022/02/27 08:47:30;;;;;;;5.38;2.83;;;5.40;68.40;;;;;;5132459;27;20564;-74
2022/02/27 08:49:55;;;;;;;4.45;2.78;;;5.40;68.40;;;;;;5130114;27;20027;-75
2022/02/27 08:52:21;;;;;;;4.28;2.05;;;5.50;68.80;;;;;;5130164;27;20113;-76
2022/02/27 08:54:48;;;;;;;3.22;1.95;;;5.60;68.70;;;;;;5130504;27;20023;-75
2022/02/27 08:57:14;;;;;;;3.97;2.08;;;5.60;68.50;;;;;;5131819;27;20619;-80
2022/02/27 08:59:40;;;;;;;3.97;1.85;;;5.60;68.60;;;;;;5113492;27;20016;-84
2022/02/27 09:02:06;;;;;;;4.97;2.03;;;5.70;68.40;;;;;;5132746;27;20025;-81
2022/02/27 09:04:32;;;;;;;5.32;2.13;;;5.70;68.20;;;;;;5132538;27;20035;-80
2022/02/27 09:06:58;;;;;;;3.00;2.08;;;5.80;68.10;;;;;;5111993;27;20034;-80
2022/02/27 09:09:24;;;;;;;4.72;2.08;;;5.80;68.10;;;;;;5112730;27;20031;-80
2022/02/27 09:11:50;;;;;;;3.88;2.00;;;5.80;68.30;;;;;;5112557;27;20098;-80
2022/02/27 09:14:15;;;;;;;3.30;2.00;;;5.90;68.40;;;;;;5131519;27;20119;-80
2022/02/27 09:16:41;;;;;;;3.20;2.00;;;5.90;68.10;;;;;;5111819;27;20027;-84
2022/02/27 09:19:07;;;;;;;2.40;1.70;;;5.90;68.10;;;;;;5130889;27;20084;-81
2022/02/27 09:21:32;;;;;;;2.85;1.70;;;6.00;68.20;;;;;;5130059;27;20030;-79
2022/02/27 09:23:58;;;;;;;2.28;1.63;;;6.10;68.20;;;;;;5130150;27;20089;-79
2022/02/27 09:26:24;;;;;;;2.72;1.70;;;6.10;68.10;;;;;;5131817;27;20095;-88
2022/02/27 09:28:51;;;;;;;2.47;1.80;;;6.10;68.00;;;;;;5131237;27;20384;-86
2022/02/27 09:31:16;;;;;;;2.95;1.80;;;6.20;69.10;;;;;;5130485;27;20018;-81
2022/02/27 09:33:42;;;;;;;3.58;1.90;;;6.30;68.30;;;;;;5111762;27;20027;-84
2022/02/27 09:36:10;;;;;;;2.90;1.77;;;6.30;68.40;;;;;;5114623;27;20027;-87
2022/02/27 09:38:37;;;;;;;4.97;1.77;;;6.40;68.20;;;;;;5131774;27;20015;-81
2022/02/27 09:41:04;;;;;;;3.60;1.85;;;6.40;67.80;;;;;;5130275;28;20148;-81
2022/02/27 09:43:29;;;;;;;3.75;1.75;;;6.40;68.00;;;;;;5129907;28;20043;-82
2022/02/27 09:45:56;;;;;;;4.70;1.95;;;6.50;68.40;;;;;;5129665;28;20019;-83
2022/02/27 09:48:22;;;;;;;2.47;1.80;;;6.60;67.90;;;;;;5129461;27;20416;-82
2022/02/27 09:50:50;;;;;;;4.55;2.05;;;6.60;67.90;;;;;;5132019;27;20031;-83
2022/02/27 09:53:16;;;;;;;3.83;2.10;;;6.70;68.00;;;;;;5129656;28;20121;-78
2022/02/27 09:55:42;;;;;;;4.18;1.80;;;6.70;67.50;;;;;;5130106;28;20031;-80
2022/02/27 09:58:07;;;;;;;3.10;2.20;;;6.70;67.20;;;;;;5128978;28;20081;-80
2022/02/27 10:00:33;;;;;;;3.15;2.00;;;6.80;67.30;;;;;;5109839;28;20088;-80
2022/02/27 10:03:13;;;;;;;3.63;1.83;;;6.80;67.30;;;;;;5128990;28;20033;-81
2022/02/27 10:05:46;;;;;;;2.90;1.73;;;6.90;67.30;;;;;;5129907;27;20039;-80
2022/02/27 10:08:15;;;;;;;4.22;2.10;;;6.90;67.00;;;;;;5113473;28;20031;-80
2022/02/27 10:11:01;;;;;;;2.80;1.77;;;6.90;66.90;;;;;;5129846;27;20035;-79
2022/02/27 10:13:45;;;;;;;3.03;1.73;;;7.00;66.90;;;;;;5128339;28;20035;-79
2022/02/27 10:16:23;;;;;;;4.20;1.98;;;7.00;67.00;;;;;;5104986;28;20039;-80
2022/02/27 10:18:59;;;;;;;5.28;2.20;;;7.00;66.90;;;;;;5125784;27;20034;-79
2022/02/27 10:21:31;;;;;;;4.88;1.98;;;7.10;67.00;;;;;;5127927;28;20065;-79
2022/02/27 10:24:03;;;;;;;3.23;1.93;;;7.20;66.90;;;;;;5129207;28;20039;-79
2022/02/27 10:26:30;;;;;;;3.08;2.15;;;7.20;66.70;;;;;;5130997;28;20023;-79
2022/02/27 10:29:08;;;;;;;4.03;2.30;;;7.30;66.60;;;;;;5130594;27;20023;-80
2022/02/27 10:31:35;;;;;;;13.18;5.10;;;7.30;66.70;;;;;;5130390;27;20027;-80
2022/02/27 10:34:24;;;;;;;6.38;2.92;;;7.40;66.70;;;;;;5130048;27;20065;-80
2022/02/27 10:36:55;;;;;;;7.22;3.38;;;7.50;66.30;;;;;;5119663;27;20019;-81
2022/02/27 10:39:39;;;;;;;5.50;2.67;;;7.50;66.30;;;;;;5130023;27;20016;-80
2022/02/27 10:42:06;;;;;;;7.82;2.70;;;7.50;66.40;;;;;;5129310;28;20110;-80
2022/02/27 10:44:32;;;;;;;3.88;2.42;;;7.60;66.30;;;;;;5130482;28;20050;-80
2022/02/27 10:47:13;;;;;;;6.05;2.20;;;7.60;66.20;;;;;;5129067;28;20384;-80
2022/02/27 10:49:39;;;;;;;6.00;2.63;;;7.60;66.40;;;;;;5126110;28;20019;-79
2022/02/27 10:52:34;;;;;;;4.00;2.20;;;7.70;66.60;;;;;;5113169;27;20058;-80
2022/02/27 10:55:06;;;;;;;3.25;2.08;;;7.80;66.20;;;;;;5098254;27;20043;-80
2022/02/27 10:57:40;;;;;;;3.42;2.05;;;7.80;66.20;;;;;;5114066;27;20031;-80
2022/02/27 11:00:26;;;;;;;4.95;2.08;;;7.90;66.20;;;;;;5117487;27;20055;-80
2022/02/27 11:02:59;;;;;;;4.35;1.88;;;7.90;67.00;;;;;;5148062;27;20139;-80
2022/02/27 11:05:29;;;;;;;3.28;1.95;;;8.00;66.50;;;;;;5115440;27;20042;-80
2022/02/27 11:07:57;;;;;;;4.15;2.35;;;8.20;66.60;;;;;;5132207;27;20377;-79
2022/02/27 11:10:28;;;;;;;3.20;2.00;;;8.30;66.10;;;;;;5132917;27;20560;-80
2022/02/27 11:12:57;;;;;;;4.53;2.45;;;8.50;67.40;;;;;;5130031;27;20025;-80
2022/02/27 11:15:23;;;;;;;4.03;2.47;;;8.80;66.30;;;;;;5132456;27;20406;-80
2022/02/27 11:17:49;;;;;;;3.65;2.30;;;9.00;65.60;;;;;;5132417;27;20027;-79
2022/02/27 11:20:19;;;;;;;5.03;2.35;;;9.10;65.10;;;;;;5133758;27;20015;-80
2022/02/27 11:22:45;;;;;;;4.93;2.35;;;9.20;65.00;;;;;;5132830;27;20071;-80
2022/02/27 11:25:11;;;;;;;3.05;2.00;;;9.30;64.60;;;;;;5132085;27;20023;-80
2022/02/27 11:27:41;;;;;;;4.82;2.55;;;9.40;64.90;;;;;;5132509;27;20061;-81
2022/02/27 11:30:09;;;;;;;5.50;2.63;;;9.50;64.60;;;;;;5112697;27;20172;-81
2022/02/27 11:32:45;;;;;;;5.47;2.67;;;9.50;64.40;;;;;;5131775;27;20015;-80
2022/02/27 11:35:40;;;;;;;3.53;2.40;;;9.70;64.10;;;;;;5114425;27;20132;-80
2022/02/27 11:38:13;;;;;;;4.22;2.42;;;9.70;63.80;;;;;;5133508;27;20023;-80
2022/02/27 11:40:41;;;;;;;4.45;2.30;;;9.80;63.70;;;;;;5113334;27;20116;-80
2022/02/27 11:43:07;;;;;;;3.58;2.10;;;9.90;63.70;;;;;;5131416;27;20071;-81
2022/02/27 11:45:36;;;;;;;5.78;2.75;;;10.00;63.70;;;;;;5131536;27;20015;-80
2022/02/27 11:48:03;;;;;;;4.15;2.13;;;10.10;63.60;;;;;;5131381;27;20030;-79
2022/02/27 11:50:36;;;;;;;4.55;2.67;;;10.20;62.90;;;;;;5114855;27;20053;-80
2022/02/27 11:53:19;;;;;;;3.40;2.30;;;10.30;62.70;;;;;;5132407;27;20445;-80
2022/02/27 11:55:45;;;;;;;;;;;10.30;62.30;;;;;;5130595;27;20031;-80
2022/02/27 11:58:24;;;;;;;5.78;2.70;;;10.30;62.80;;;;;;5113503;27;19915;-81
2022/02/27 12:00:51;;;;;;;3.10;1.95;;;10.40;62.70;;;;;;5129344;27;20023;-81
2022/02/27 12:03:31;;;;;;;4.10;2.00;;;10.40;62.20;;;;;;5131975;27;20027;-80
2022/02/27 12:06:06;;;;;;;3.25;2.10;;;10.50;62.80;;;;;;5131169;27;20070;-80
2022/02/27 12:08:42;;;;;;;3.08;1.95;;;10.60;62.90;;;;;;5133518;27;20007;-80
2022/02/27 12:11:30;;;;;;;4.68;2.38;;;10.70;62.90;;;;;;5132804;27;20023;-80
2022/02/27 12:14:03;;;;;;;2.78;2.20;;;10.60;62.50;;;;;;5112800;27;20107;-80
2022/02/27 12:16:33;;;;;;;;;;;10.60;62.30;;;;;;5129174;27;20042;-80
2022/02/27 12:18:59;;;;;;;3.53;2.10;;;10.50;62.30;;;;;;5132081;27;19908;-80
2022/02/27 12:21:31;;;;;;;5.18;2.00;;;10.60;62.40;;;;;;5113732;27;20033;-80
2022/02/27 12:24:22;;;;;;;4.82;2.08;;;10.50;62.50;;;;;;5132298;27;20059;-80
2022/02/27 12:26:57;;;;;;;5.55;2.65;;;10.60;62.60;;;;;;5131951;27;20026;-80
2022/02/27 12:29:34;;;;;;;4.78;2.45;;;10.60;63.00;;;;;;5131762;27;20074;-80
2022/02/27 12:32:10;;;;;;;4.68;2.20;;;10.80;63.00;;;;;;5131618;27;20522;-80
2022/02/27 12:34:37;;;;;;;6.47;2.45;;;10.70;62.90;;;;;;5111740;27;20376;-80
2022/02/27 12:37:05;;;;;;;5.25;2.20;;;10.70;62.60;;;;;;5131713;27;20030;-80
2022/02/27 12:39:34;;;;;;;5.43;2.38;;;10.80;62.90;;;;;;5129060;27;20506;-80
2022/02/27 12:42:01;;;;;;;5.15;2.45;;;10.80;63.00;;;;;;5132032;27;20538;-79
2022/02/27 12:44:28;;;;;;;3.95;2.45;;;10.90;62.60;;;;;;5114397;27;20046;-80
2022/02/27 12:46:57;;;;;;;6.05;2.55;;;10.90;62.40;;;;;;5130856;27;20019;-78
2022/02/27 12:52:15;;;;;;;5.93;2.45;;;11.00;62.40;;;;;;5133763;27;20403;-81
2022/02/27 12:54:44;;;;;;;4.68;2.50;;;11.00;63.10;;;;;;5131242;27;20118;-81
2022/02/27 12:57:10;;;;;;;6.47;2.80;;;11.10;63.10;;;;;;5113136;27;20495;-78
2022/02/27 12:59:40;;;;;;;7.07;3.38;;;11.20;63.20;;;;;;5133696;27;20023;-78